sensor_id;sensor_type;location;lat;lon;timestamp;temperature;humidity
6407;DHT22;3236;51.022;6.818;2023-05-23T00:00:09;15.10;99.90
6407;DHT22;3236;51.022;6.818;2023-05-23T00:02:39;14.80;99.90
6407;DHT22;3236;51.022;6.818;2023-05-23T00:05:14;15.10;99.90
6407;DHT22;3236;51.022;6.818;2023-05-23T00:07:42;15.00;99.90
6407;DHT22;3236;51.022;6.818;2023-05-23T00:10:12;14.90;99.90
6407;DHT22;3236;51.022;6.818;2023-05-23T00:12:40;15.00;99.90
6407;DHT22;3236;51.022;6.818;2023-05-23T00:15:10;14.80;99.90
6407;DHT22;3236;51.022;6.818;2023-05-23T00:17:38;14.90;99.90
6407;DHT22;3236;51.022;6.818;2023-05-23T00:20:06;16.40;99.90
6407;DHT22;3236;51.022;6.818;2023-05-23T00:22:35;14.70;99.90
6407;DHT22;3236;51.022;6.818;2023-05-23T00:25:08;14.80;99.90
6407;DHT22;3236;51.022;6.818;2023-05-23T00:27:39;14.70;99.90
6407;DHT22;3236;51.022;6.818;2023-05-23T00:30:08;14.40;99.90
6407;DHT22;3236;51.022;6.818;2023-05-23T00:32:35;14.80;99.90
6407;DHT22;3236;51.022;6.818;2023-05-23T00:35:07;14.70;99.90
6407;DHT22;3236;51.022;6.818;2023-05-23T00:37:34;14.80;99.90
6407;DHT22;3236;51.022;6.818;2023-05-23T00:40:05;14.90;99.90
6407;DHT22;3236;51.022;6.818;2023-05-23T00:42:33;14.90;99.90
6407;DHT22;3236;51.022;6.818;2023-05-23T00:45:01;15.00;99.90
6407;DHT22;3236;51.022;6.818;2023-05-23T00:47:28;15.30;99.90
6407;DHT22;3236;51.022;6.818;2023-05-23T00:49:55;15.00;99.90
6407;DHT22;3236;51.022;6.818;2023-05-23T00:54:50;15.50;99.90
6407;DHT22;3236;51.022;6.818;2023-05-23T00:57:17;15.30;99.90
6407;DHT22;3236;51.022;6.818;2023-05-23T00:59:44;15.40;99.90
6407;DHT22;3236;51.022;6.818;2023-05-23T01:02:13;15.80;99.90
6407;DHT22;3236;51.022;6.818;2023-05-23T01:04:41;15.60;99.90
6407;DHT22;3236;51.022;6.818;2023-05-23T01:07:11;15.40;99.90
6407;DHT22;3236;51.022;6.818;2023-05-23T01:09:39;15.30;99.90
6407;DHT22;3236;51.022;6.818;2023-05-23T01:12:18;15.40;99.90
6407;DHT22;3236;51.022;6.818;2023-05-23T01:14:50;15.70;99.90
6407;DHT22;3236;51.022;6.818;2023-05-23T01:17:28;15.70;99.90
6407;DHT22;3236;51.022;6.818;2023-05-23T01:20:01;16.00;99.90
6407;DHT22;3236;51.022;6.818;2023-05-23T01:22:53;15.70;99.90
6407;DHT22;3236;51.022;6.818;2023-05-23T01:25:28;15.70;99.90
6407;DHT22;3236;51.022;6.818;2023-05-23T01:28:04;15.40;99.90
6407;DHT22;3236;51.022;6.818;2023-05-23T01:30:35;15.50;99.90
6407;DHT22;3236;51.022;6.818;2023-05-23T01:33:04;15.60;99.90
6407;DHT22;3236;51.022;6.818;2023-05-23T01:35:31;15.40;99.90
6407;DHT22;3236;51.022;6.818;2023-05-23T01:37:59;15.90;99.90
6407;DHT22;3236;51.022;6.818;2023-05-23T01:40:26;15.50;99.90
6407;DHT22;3236;51.022;6.818;2023-05-23T01:42:55;15.50;99.90
6407;DHT22;3236;51.022;6.818;2023-05-23T01:45:28;15.50;99.90
6407;DHT22;3236;51.022;6.818;2023-05-23T01:47:56;15.40;99.90
6407;DHT22;3236;51.022;6.818;2023-05-23T01:50:24;15.40;99.90
6407;DHT22;3236;51.022;6.818;2023-05-23T01:52:51;14.30;99.90
6407;DHT22;3236;51.022;6.818;2023-05-23T01:55:20;15.40;99.90
6407;DHT22;3236;51.022;6.818;2023-05-23T01:57:49;15.40;99.90
6407;DHT22;3236;51.022;6.818;2023-05-23T02:00:18;15.40;99.90
6407;DHT22;3236;51.022;6.818;2023-05-23T02:02:47;15.30;99.90
6407;DHT22;3236;51.022;6.818;2023-05-23T02:05:14;15.40;99.90
6407;DHT22;3236;51.022;6.818;2023-05-23T02:07:41;15.20;99.90
6407;DHT22;3236;51.022;6.818;2023-05-23T02:10:11;15.30;99.90
6407;DHT22;3236;51.022;6.818;2023-05-23T02:12:40;15.00;99.90
6407;DHT22;3236;51.022;6.818;2023-05-23T02:15:07;15.40;99.90
6407;DHT22;3236;51.022;6.818;2023-05-23T02:17:35;15.50;99.90
6407;DHT22;3236;51.022;6.818;2023-05-23T02:20:08;15.40;99.90
6407;DHT22;3236;51.022;6.818;2023-05-23T02:22:37;15.30;99.90
6407;DHT22;3236;51.022;6.818;2023-05-23T02:25:05;14.60;99.90
6407;DHT22;3236;51.022;6.818;2023-05-23T02:27:32;15.30;99.90
6407;DHT22;3236;51.022;6.818;2023-05-23T02:30:00;15.40;99.90
6407;DHT22;3236;51.022;6.818;2023-05-23T02:32:27;15.30;99.90
6407;DHT22;3236;51.022;6.818;2023-05-23T02:35:00;15.30;99.90
6407;DHT22;3236;51.022;6.818;2023-05-23T02:37:28;15.30;99.90
6407;DHT22;3236;51.022;6.818;2023-05-23T02:39:55;15.30;99.90
6407;DHT22;3236;51.022;6.818;2023-05-23T02:42:22;15.30;99.90
6407;DHT22;3236;51.022;6.818;2023-05-23T02:44:49;15.30;99.90
6407;DHT22;3236;51.022;6.818;2023-05-23T02:47:16;15.30;99.90
6407;DHT22;3236;51.022;6.818;2023-05-23T02:49:43;15.20;99.90
6407;DHT22;3236;51.022;6.818;2023-05-23T02:52:11;15.30;99.90
6407;DHT22;3236;51.022;6.818;2023-05-23T02:54:39;15.40;99.90
6407;DHT22;3236;51.022;6.818;2023-05-23T02:57:09;15.20;99.90
6407;DHT22;3236;51.022;6.818;2023-05-23T02:59:36;15.20;99.90
6407;DHT22;3236;51.022;6.818;2023-05-23T03:02:04;15.20;99.90
6407;DHT22;3236;51.022;6.818;2023-05-23T03:04:31;15.20;99.90
6407;DHT22;3236;51.022;6.818;2023-05-23T03:06:58;15.40;99.90
6407;DHT22;3236;51.022;6.818;2023-05-23T03:09:25;15.20;99.90
6407;DHT22;3236;51.022;6.818;2023-05-23T03:11:53;15.20;99.90
6407;DHT22;3236;51.022;6.818;2023-05-23T03:14:20;15.20;99.90
6407;DHT22;3236;51.022;6.818;2023-05-23T03:16:48;15.20;99.90
6407;DHT22;3236;51.022;6.818;2023-05-23T03:19:21;15.10;99.90
6407;DHT22;3236;51.022;6.818;2023-05-23T03:21:48;15.10;99.90
6407;DHT22;3236;51.022;6.818;2023-05-23T03:24:16;15.10;99.90
6407;DHT22;3236;51.022;6.818;2023-05-23T03:26:43;15.10;99.90
6407;DHT22;3236;51.022;6.818;2023-05-23T03:29:15;15.00;99.90
6407;DHT22;3236;51.022;6.818;2023-05-23T03:31:42;15.00;99.90
6407;DHT22;3236;51.022;6.818;2023-05-23T03:34:09;15.00;99.90
6407;DHT22;3236;51.022;6.818;2023-05-23T03:36:37;14.90;99.90
6407;DHT22;3236;51.022;6.818;2023-05-23T03:39:05;15.30;99.90
6407;DHT22;3236;51.022;6.818;2023-05-23T03:41:32;14.70;99.90
6407;DHT22;3236;51.022;6.818;2023-05-23T03:43:59;14.90;99.90
6407;DHT22;3236;51.022;6.818;2023-05-23T03:48:55;14.90;99.90
6407;DHT22;3236;51.022;6.818;2023-05-23T03:51:22;15.20;99.90
6407;DHT22;3236;51.022;6.818;2023-05-23T03:53:49;14.90;99.90
6407;DHT22;3236;51.022;6.818;2023-05-23T03:56:17;14.90;99.90
6407;DHT22;3236;51.022;6.818;2023-05-23T03:58:44;14.90;99.90
6407;DHT22;3236;51.022;6.818;2023-05-23T04:01:11;14.90;99.90
6407;DHT22;3236;51.022;6.818;2023-05-23T04:03:42;14.00;99.90
6407;DHT22;3236;51.022;6.818;2023-05-23T04:06:09;14.90;99.90
6407;DHT22;3236;51.022;6.818;2023-05-23T04:08:36;14.40;99.90
6407;DHT22;3236;51.022;6.818;2023-05-23T04:11:06;14.60;99.90
6407;DHT22;3236;51.022;6.818;2023-05-23T04:13:33;14.80;99.90
6407;DHT22;3236;51.022;6.818;2023-05-23T04:16:00;14.90;99.90
6407;DHT22;3236;51.022;6.818;2023-05-23T04:18:30;15.00;99.90
6407;DHT22;3236;51.022;6.818;2023-05-23T04:21:00;15.00;99.90
6407;DHT22;3236;51.022;6.818;2023-05-23T04:23:27;14.90;99.90
6407;DHT22;3236;51.022;6.818;2023-05-23T04:25:54;14.90;99.90
6407;DHT22;3236;51.022;6.818;2023-05-23T04:28:22;14.90;99.90
6407;DHT22;3236;51.022;6.818;2023-05-23T04:30:52;14.90;99.90
6407;DHT22;3236;51.022;6.818;2023-05-23T04:33:19;15.10;99.90
6407;DHT22;3236;51.022;6.818;2023-05-23T04:35:46;14.90;99.90
6407;DHT22;3236;51.022;6.818;2023-05-23T04:38:15;14.90;99.90
6407;DHT22;3236;51.022;6.818;2023-05-23T04:40:42;14.80;99.90
6407;DHT22;3236;51.022;6.818;2023-05-23T04:43:12;15.00;99.90
6407;DHT22;3236;51.022;6.818;2023-05-23T04:45:41;14.90;99.90
6407;DHT22;3236;51.022;6.818;2023-05-23T04:48:08;14.30;99.90
6407;DHT22;3236;51.022;6.818;2023-05-23T04:50:37;14.90;99.90
6407;DHT22;3236;51.022;6.818;2023-05-23T04:53:08;14.90;99.90
6407;DHT22;3236;51.022;6.818;2023-05-23T04:55:37;14.90;99.90
6407;DHT22;3236;51.022;6.818;2023-05-23T04:58:08;14.90;99.90
6407;DHT22;3236;51.022;6.818;2023-05-23T05:00:35;15.00;99.90
6407;DHT22;3236;51.022;6.818;2023-05-23T05:03:02;14.90;99.90
6407;DHT22;3236;51.022;6.818;2023-05-23T05:05:29;14.00;99.90
6407;DHT22;3236;51.022;6.818;2023-05-23T05:08:16;14.90;99.90
6407;DHT22;3236;51.022;6.818;2023-05-23T05:10:45;14.90;99.90
6407;DHT22;3236;51.022;6.818;2023-05-23T05:13:12;14.90;99.90
6407;DHT22;3236;51.022;6.818;2023-05-23T05:15:40;14.90;99.90
6407;DHT22;3236;51.022;6.818;2023-05-23T05:18:07;14.90;99.90
6407;DHT22;3236;51.022;6.818;2023-05-23T05:20:34;14.80;99.90
6407;DHT22;3236;51.022;6.818;2023-05-23T05:23:01;14.90;99.90
6407;DHT22;3236;51.022;6.818;2023-05-23T05:25:28;14.90;99.90
6407;DHT22;3236;51.022;6.818;2023-05-23T05:27:59;14.90;99.90
6407;DHT22;3236;51.022;6.818;2023-05-23T05:30:30;14.90;99.90
6407;DHT22;3236;51.022;6.818;2023-05-23T05:32:58;14.80;99.90
6407;DHT22;3236;51.022;6.818;2023-05-23T05:35:26;14.90;99.90
6407;DHT22;3236;51.022;6.818;2023-05-23T05:37:54;14.90;99.90
6407;DHT22;3236;51.022;6.818;2023-05-23T05:40:21;14.90;99.90
6407;DHT22;3236;51.022;6.818;2023-05-23T05:42:48;14.90;99.90
6407;DHT22;3236;51.022;6.818;2023-05-23T05:45:16;14.90;99.90
6407;DHT22;3236;51.022;6.818;2023-05-23T05:47:49;14.90;99.90
6407;DHT22;3236;51.022;6.818;2023-05-23T05:50:16;14.90;99.90
6407;DHT22;3236;51.022;6.818;2023-05-23T05:52:45;14.90;99.90
6407;DHT22;3236;51.022;6.818;2023-05-23T05:55:12;14.90;99.90
6407;DHT22;3236;51.022;6.818;2023-05-23T05:57:39;14.90;99.90
6407;DHT22;3236;51.022;6.818;2023-05-23T06:00:09;14.90;99.90
6407;DHT22;3236;51.022;6.818;2023-05-23T06:02:39;15.00;99.90
6407;DHT22;3236;51.022;6.818;2023-05-23T06:05:09;14.90;99.90
6407;DHT22;3236;51.022;6.818;2023-05-23T06:07:37;15.00;99.90
6407;DHT22;3236;51.022;6.818;2023-05-23T06:10:05;14.90;99.90
6407;DHT22;3236;51.022;6.818;2023-05-23T06:12:33;15.00;99.90
6407;DHT22;3236;51.022;6.818;2023-05-23T06:15:01;15.00;99.90
6407;DHT22;3236;51.022;6.818;2023-05-23T06:17:28;15.00;99.90
6407;DHT22;3236;51.022;6.818;2023-05-23T06:19:56;14.90;99.90
6407;DHT22;3236;51.022;6.818;2023-05-23T06:22:24;15.00;99.90
6407;DHT22;3236;51.022;6.818;2023-05-23T06:24:51;15.10;99.90
6407;DHT22;3236;51.022;6.818;2023-05-23T06:27:21;15.10;99.90
6407;DHT22;3236;51.022;6.818;2023-05-23T06:29:48;15.10;99.90
6407;DHT22;3236;51.022;6.818;2023-05-23T06:32:15;15.00;99.90
6407;DHT22;3236;51.022;6.818;2023-05-23T06:34:42;15.00;99.90
6407;DHT22;3236;51.022;6.818;2023-05-23T06:37:13;15.10;99.90
6407;DHT22;3236;51.022;6.818;2023-05-23T06:39:40;15.10;99.90
6407;DHT22;3236;51.022;6.818;2023-05-23T06:42:07;15.10;99.90
6407;DHT22;3236;51.022;6.818;2023-05-23T06:44:34;15.00;99.90
6407;DHT22;3236;51.022;6.818;2023-05-23T06:47:01;15.10;99.90
6407;DHT22;3236;51.022;6.818;2023-05-23T06:49:28;15.20;99.90
6407;DHT22;3236;51.022;6.818;2023-05-23T06:51:57;15.30;99.90
6407;DHT22;3236;51.022;6.818;2023-05-23T06:54:26;15.30;99.90
6407;DHT22;3236;51.022;6.818;2023-05-23T06:56:55;15.30;99.90
6407;DHT22;3236;51.022;6.818;2023-05-23T06:59:23;15.30;99.90
6407;DHT22;3236;51.022;6.818;2023-05-23T07:01:50;15.50;99.90
6407;DHT22;3236;51.022;6.818;2023-05-23T07:04:17;15.50;99.90
6407;DHT22;3236;51.022;6.818;2023-05-23T07:06:47;15.40;99.90
6407;DHT22;3236;51.022;6.818;2023-05-23T07:09:17;15.40;99.90
6407;DHT22;3236;51.022;6.818;2023-05-23T07:11:46;15.40;99.90
6407;DHT22;3236;51.022;6.818;2023-05-23T07:14:14;15.60;99.90
6407;DHT22;3236;51.022;6.818;2023-05-23T07:16:41;15.50;99.90
6407;DHT22;3236;51.022;6.818;2023-05-23T07:19:08;15.70;99.90
6407;DHT22;3236;51.022;6.818;2023-05-23T07:21:38;15.80;99.90
6407;DHT22;3236;51.022;6.818;2023-05-23T07:24:05;15.80;99.90
6407;DHT22;3236;51.022;6.818;2023-05-23T07:26:33;15.90;99.90
6407;DHT22;3236;51.022;6.818;2023-05-23T07:29:01;15.90;99.90
6407;DHT22;3236;51.022;6.818;2023-05-23T07:31:28;16.10;99.90
6407;DHT22;3236;51.022;6.818;2023-05-23T07:33:55;15.90;99.90
6407;DHT22;3236;51.022;6.818;2023-05-23T07:36:22;16.10;99.90
6407;DHT22;3236;51.022;6.818;2023-05-23T07:38:50;16.10;99.90
6407;DHT22;3236;51.022;6.818;2023-05-23T07:41:18;16.20;99.90
6407;DHT22;3236;51.022;6.818;2023-05-23T07:43:45;16.20;99.90
6407;DHT22;3236;51.022;6.818;2023-05-23T07:46:13;15.90;99.90
6407;DHT22;3236;51.022;6.818;2023-05-23T07:48:41;15.80;99.90
6407;DHT22;3236;51.022;6.818;2023-05-23T07:51:08;15.60;99.90
6407;DHT22;3236;51.022;6.818;2023-05-23T07:53:35;15.60;99.90
6407;DHT22;3236;51.022;6.818;2023-05-23T07:56:04;15.60;99.90
6407;DHT22;3236;51.022;6.818;2023-05-23T07:58:31;15.60;99.90
6407;DHT22;3236;51.022;6.818;2023-05-23T08:00:59;15.50;99.90
6407;DHT22;3236;51.022;6.818;2023-05-23T08:03:27;17.10;99.90
6407;DHT22;3236;51.022;6.818;2023-05-23T08:05:55;15.50;99.90
6407;DHT22;3236;51.022;6.818;2023-05-23T08:08:22;15.60;99.90
6407;DHT22;3236;51.022;6.818;2023-05-23T08:13:16;15.60;99.90
6407;DHT22;3236;51.022;6.818;2023-05-23T08:15:43;15.80;99.90
6407;DHT22;3236;51.022;6.818;2023-05-23T08:18:10;16.10;99.90
6407;DHT22;3236;51.022;6.818;2023-05-23T08:20:39;16.20;99.90
6407;DHT22;3236;51.022;6.818;2023-05-23T08:23:06;16.30;99.90
6407;DHT22;3236;51.022;6.818;2023-05-23T08:25:33;16.00;99.90
6407;DHT22;3236;51.022;6.818;2023-05-23T08:28:00;15.90;99.90
6407;DHT22;3236;51.022;6.818;2023-05-23T08:30:28;15.80;99.90
6407;DHT22;3236;51.022;6.818;2023-05-23T08:32:58;15.70;99.90
6407;DHT22;3236;51.022;6.818;2023-05-23T08:35:29;15.40;99.90
6407;DHT22;3236;51.022;6.818;2023-05-23T08:38:06;15.30;99.90
6407;DHT22;3236;51.022;6.818;2023-05-23T08:40:34;15.50;99.90
6407;DHT22;3236;51.022;6.818;2023-05-23T08:43:02;15.50;99.90
6407;DHT22;3236;51.022;6.818;2023-05-23T08:45:30;15.60;99.90
6407;DHT22;3236;51.022;6.818;2023-05-23T08:48:07;15.60;99.90
6407;DHT22;3236;51.022;6.818;2023-05-23T08:50:36;15.50;99.90
6407;DHT22;3236;51.022;6.818;2023-05-23T08:53:08;14.60;99.90
6407;DHT22;3236;51.022;6.818;2023-05-23T08:55:37;14.70;99.90
6407;DHT22;3236;51.022;6.818;2023-05-23T08:58:04;15.10;99.90
6407;DHT22;3236;51.022;6.818;2023-05-23T09:00:33;14.90;99.90
6407;DHT22;3236;51.022;6.818;2023-05-23T09:03:00;14.90;99.90
6407;DHT22;3236;51.022;6.818;2023-05-23T09:05:27;14.80;99.90
6407;DHT22;3236;51.022;6.818;2023-05-23T09:07:55;14.70;99.90
6407;DHT22;3236;51.022;6.818;2023-05-23T09:10:27;14.60;99.90
6407;DHT22;3236;51.022;6.818;2023-05-23T09:12:57;15.90;99.90
6407;DHT22;3236;51.022;6.818;2023-05-23T09:15:24;14.60;99.90
6407;DHT22;3236;51.022;6.818;2023-05-23T09:17:52;14.90;99.90
6407;DHT22;3236;51.022;6.818;2023-05-23T09:20:19;14.90;99.90
6407;DHT22;3236;51.022;6.818;2023-05-23T09:22:47;14.90;99.90
6407;DHT22;3236;51.022;6.818;2023-05-23T09:25:14;15.00;99.90
6407;DHT22;3236;51.022;6.818;2023-05-23T09:27:42;15.00;99.90
6407;DHT22;3236;51.022;6.818;2023-05-23T09:30:12;15.00;99.90
6407;DHT22;3236;51.022;6.818;2023-05-23T09:32:39;14.80;99.90
6407;DHT22;3236;51.022;6.818;2023-05-23T09:35:07;14.70;99.90
6407;DHT22;3236;51.022;6.818;2023-05-23T09:37:44;15.20;99.90
6407;DHT22;3236;51.022;6.818;2023-05-23T09:40:13;14.50;99.90
6407;DHT22;3236;51.022;6.818;2023-05-23T09:42:43;14.70;99.90
6407;DHT22;3236;51.022;6.818;2023-05-23T09:45:11;16.40;99.90
6407;DHT22;3236;51.022;6.818;2023-05-23T09:47:38;15.50;99.90
6407;DHT22;3236;51.022;6.818;2023-05-23T09:52:36;15.80;99.90
6407;DHT22;3236;51.022;6.818;2023-05-23T09:55:04;15.40;99.90
6407;DHT22;3236;51.022;6.818;2023-05-23T09:57:34;14.90;99.90
6407;DHT22;3236;51.022;6.818;2023-05-23T10:00:05;14.70;99.90
6407;DHT22;3236;51.022;6.818;2023-05-23T10:02:54;16.60;99.90
6407;DHT22;3236;51.022;6.818;2023-05-23T10:05:32;17.30;99.90
6407;DHT22;3236;51.022;6.818;2023-05-23T10:08:01;15.60;99.90
6407;DHT22;3236;51.022;6.818;2023-05-23T10:10:32;15.40;99.90
6407;DHT22;3236;51.022;6.818;2023-05-23T10:13:01;15.30;99.90
6407;DHT22;3236;51.022;6.818;2023-05-23T10:15:35;14.90;99.90
6407;DHT22;3236;51.022;6.818;2023-05-23T10:18:08;14.90;99.90
6407;DHT22;3236;51.022;6.818;2023-05-23T10:20:39;15.20;99.90
6407;DHT22;3236;51.022;6.818;2023-05-23T10:23:07;15.20;99.90
6407;DHT22;3236;51.022;6.818;2023-05-23T10:25:35;15.20;99.90
6407;DHT22;3236;51.022;6.818;2023-05-23T10:28:03;15.20;99.90
6407;DHT22;3236;51.022;6.818;2023-05-23T10:30:33;15.30;99.90
6407;DHT22;3236;51.022;6.818;2023-05-23T10:33:05;15.30;99.90
6407;DHT22;3236;51.022;6.818;2023-05-23T10:35:49;15.40;99.90
6407;DHT22;3236;51.022;6.818;2023-05-23T10:38:35;15.00;99.90
6407;DHT22;3236;51.022;6.818;2023-05-23T10:41:09;14.90;99.90
6407;DHT22;3236;51.022;6.818;2023-05-23T10:43:44;14.90;99.90
6407;DHT22;3236;51.022;6.818;2023-05-23T10:46:14;14.80;99.90
6407;DHT22;3236;51.022;6.818;2023-05-23T10:48:42;14.90;99.90
6407;DHT22;3236;51.022;6.818;2023-05-23T10:51:11;14.90;99.90
6407;DHT22;3236;51.022;6.818;2023-05-23T10:53:40;15.00;99.90
6407;DHT22;3236;51.022;6.818;2023-05-23T10:56:08;14.80;99.90
6407;DHT22;3236;51.022;6.818;2023-05-23T11:01:06;15.50;99.90
6407;DHT22;3236;51.022;6.818;2023-05-23T11:03:36;15.50;99.90
6407;DHT22;3236;51.022;6.818;2023-05-23T11:06:04;15.70;99.90
6407;DHT22;3236;51.022;6.818;2023-05-23T11:08:38;15.80;99.90
6407;DHT22;3236;51.022;6.818;2023-05-23T11:11:12;15.80;99.90
6407;DHT22;3236;51.022;6.818;2023-05-23T11:13:56;16.00;99.90
6407;DHT22;3236;51.022;6.818;2023-05-23T11:16:26;16.40;99.90
6407;DHT22;3236;51.022;6.818;2023-05-23T11:19:22;16.70;99.90
6407;DHT22;3236;51.022;6.818;2023-05-23T11:21:53;16.80;99.90
6407;DHT22;3236;51.022;6.818;2023-05-23T11:24:20;17.50;99.90
6407;DHT22;3236;51.022;6.818;2023-05-23T11:26:52;17.60;99.90
6407;DHT22;3236;51.022;6.818;2023-05-23T11:29:20;17.90;99.90
6407;DHT22;3236;51.022;6.818;2023-05-23T11:31:47;18.10;99.90
6407;DHT22;3236;51.022;6.818;2023-05-23T11:34:16;18.50;99.90
6407;DHT22;3236;51.022;6.818;2023-05-23T11:36:52;18.70;99.90
6407;DHT22;3236;51.022;6.818;2023-05-23T11:39:20;19.70;99.90
6407;DHT22;3236;51.022;6.818;2023-05-23T11:41:57;19.50;99.90
6407;DHT22;3236;51.022;6.818;2023-05-23T11:44:27;19.30;99.90
6407;DHT22;3236;51.022;6.818;2023-05-23T11:47:01;18.80;99.90
6407;DHT22;3236;51.022;6.818;2023-05-23T11:49:33;18.70;99.90
6407;DHT22;3236;51.022;6.818;2023-05-23T11:52:01;18.70;99.90
6407;DHT22;3236;51.022;6.818;2023-05-23T11:54:30;17.80;99.90
6407;DHT22;3236;51.022;6.818;2023-05-23T11:56:57;18.30;99.90
6407;DHT22;3236;51.022;6.818;2023-05-23T11:59:25;18.50;99.90
6407;DHT22;3236;51.022;6.818;2023-05-23T12:01:54;18.70;99.90
6407;DHT22;3236;51.022;6.818;2023-05-23T12:04:22;18.80;99.90
6407;DHT22;3236;51.022;6.818;2023-05-23T12:06:52;18.80;99.90
6407;DHT22;3236;51.022;6.818;2023-05-23T12:09:19;18.80;99.90
6407;DHT22;3236;51.022;6.818;2023-05-23T12:11:48;19.10;99.90
6407;DHT22;3236;51.022;6.818;2023-05-23T12:14:18;19.00;99.90
6407;DHT22;3236;51.022;6.818;2023-05-23T12:16:45;18.60;99.90
6407;DHT22;3236;51.022;6.818;2023-05-23T12:19:13;18.70;99.90
6407;DHT22;3236;51.022;6.818;2023-05-23T12:21:44;18.90;99.90
6407;DHT22;3236;51.022;6.818;2023-05-23T12:24:14;19.00;99.90
6407;DHT22;3236;51.022;6.818;2023-05-23T12:26:49;19.50;99.90
6407;DHT22;3236;51.022;6.818;2023-05-23T12:29:26;19.50;99.90
6407;DHT22;3236;51.022;6.818;2023-05-23T12:31:53;19.30;99.90
6407;DHT22;3236;51.022;6.818;2023-05-23T12:34:21;18.80;99.90
6407;DHT22;3236;51.022;6.818;2023-05-23T12:36:48;18.50;99.90
6407;DHT22;3236;51.022;6.818;2023-05-23T12:39:23;17.80;99.90
6407;DHT22;3236;51.022;6.818;2023-05-23T12:41:52;17.60;99.90
6407;DHT22;3236;51.022;6.818;2023-05-23T12:44:20;17.70;99.90
6407;DHT22;3236;51.022;6.818;2023-05-23T12:46:50;18.50;99.90
6407;DHT22;3236;51.022;6.818;2023-05-23T12:49:17;18.80;99.90
6407;DHT22;3236;51.022;6.818;2023-05-23T12:51:44;18.70;99.90
6407;DHT22;3236;51.022;6.818;2023-05-23T12:54:11;18.80;99.90
6407;DHT22;3236;51.022;6.818;2023-05-23T12:56:40;18.80;99.90
6407;DHT22;3236;51.022;6.818;2023-05-23T12:59:06;18.70;99.90
6407;DHT22;3236;51.022;6.818;2023-05-23T13:01:34;18.60;99.90
6407;DHT22;3236;51.022;6.818;2023-05-23T13:04:01;19.20;99.90
6407;DHT22;3236;51.022;6.818;2023-05-23T13:06:28;19.30;98.90
6407;DHT22;3236;51.022;6.818;2023-05-23T13:08:56;20.50;98.50
6407;DHT22;3236;51.022;6.818;2023-05-23T13:11:23;20.70;96.70
6407;DHT22;3236;51.022;6.818;2023-05-23T13:13:53;21.00;96.10
6407;DHT22;3236;51.022;6.818;2023-05-23T13:16:20;21.10;95.60
6407;DHT22;3236;51.022;6.818;2023-05-23T13:18:47;21.50;92.00
6407;DHT22;3236;51.022;6.818;2023-05-23T13:21:14;21.10;91.70
6407;DHT22;3236;51.022;6.818;2023-05-23T13:23:42;21.30;92.40
6407;DHT22;3236;51.022;6.818;2023-05-23T13:26:09;21.20;90.50
6407;DHT22;3236;51.022;6.818;2023-05-23T13:28:38;20.60;91.90
6407;DHT22;3236;51.022;6.818;2023-05-23T13:31:09;20.60;92.10
6407;DHT22;3236;51.022;6.818;2023-05-23T13:33:37;20.40;91.80
6407;DHT22;3236;51.022;6.818;2023-05-23T13:36:04;20.00;90.80
6407;DHT22;3236;51.022;6.818;2023-05-23T13:38:31;20.00;90.20
6407;DHT22;3236;51.022;6.818;2023-05-23T13:40:58;20.80;87.30
6407;DHT22;3236;51.022;6.818;2023-05-23T13:43:25;21.70;84.60
6407;DHT22;3236;51.022;6.818;2023-05-23T13:45:53;21.70;84.70
6407;DHT22;3236;51.022;6.818;2023-05-23T13:50:51;22.20;74.50
6407;DHT22;3236;51.022;6.818;2023-05-23T13:53:18;21.60;78.60
6407;DHT22;3236;51.022;6.818;2023-05-23T13:55:47;21.70;80.10
6407;DHT22;3236;51.022;6.818;2023-05-23T13:58:15;21.80;77.20
6407;DHT22;3236;51.022;6.818;2023-05-23T14:00:42;21.70;77.70
6407;DHT22;3236;51.022;6.818;2023-05-23T14:03:09;21.10;77.20
6407;DHT22;3236;51.022;6.818;2023-05-23T14:05:38;21.40;81.20
6407;DHT22;3236;51.022;6.818;2023-05-23T14:08:05;21.20;80.50
6407;DHT22;3236;51.022;6.818;2023-05-23T14:10:32;21.00;76.80
6407;DHT22;3236;51.022;6.818;2023-05-23T14:12:59;20.60;81.20
6407;DHT22;3236;51.022;6.818;2023-05-23T14:15:28;20.70;79.50
6407;DHT22;3236;51.022;6.818;2023-05-23T14:17:55;21.20;78.40
6407;DHT22;3236;51.022;6.818;2023-05-23T14:20:23;21.60;75.70
6407;DHT22;3236;51.022;6.818;2023-05-23T14:22:51;21.10;77.40
6407;DHT22;3236;51.022;6.818;2023-05-23T14:25:18;21.10;79.30
6407;DHT22;3236;51.022;6.818;2023-05-23T14:27:45;20.60;79.40
6407;DHT22;3236;51.022;6.818;2023-05-23T14:30:12;20.70;79.30
6407;DHT22;3236;51.022;6.818;2023-05-23T14:32:40;21.10;79.20
6407;DHT22;3236;51.022;6.818;2023-05-23T14:35:09;20.40;82.60
6407;DHT22;3236;51.022;6.818;2023-05-23T14:37:37;20.30;80.50
6407;DHT22;3236;51.022;6.818;2023-05-23T14:40:08;19.90;80.20
6407;DHT22;3236;51.022;6.818;2023-05-23T14:42:35;20.00;80.80
6407;DHT22;3236;51.022;6.818;2023-05-23T14:45:03;20.20;81.30
6407;DHT22;3236;51.022;6.818;2023-05-23T14:47:30;19.80;80.50
6407;DHT22;3236;51.022;6.818;2023-05-23T14:49:57;20.20;82.20
6407;DHT22;3236;51.022;6.818;2023-05-23T14:52:24;21.30;82.40
6407;DHT22;3236;51.022;6.818;2023-05-23T14:54:51;21.80;73.40
6407;DHT22;3236;51.022;6.818;2023-05-23T14:57:20;21.80;71.90
6407;DHT22;3236;51.022;6.818;2023-05-23T14:59:47;21.10;75.70
6407;DHT22;3236;51.022;6.818;2023-05-23T15:02:15;20.30;78.30
6407;DHT22;3236;51.022;6.818;2023-05-23T15:04:42;20.10;81.20
6407;DHT22;3236;51.022;6.818;2023-05-23T15:07:09;19.80;86.60
6407;DHT22;3236;51.022;6.818;2023-05-23T15:09:38;20.60;84.30
6407;DHT22;3236;51.022;6.818;2023-05-23T15:12:05;21.40;80.80
6407;DHT22;3236;51.022;6.818;2023-05-23T15:14:35;22.00;75.20
6407;DHT22;3236;51.022;6.818;2023-05-23T15:17:02;21.60;73.20
6407;DHT22;3236;51.022;6.818;2023-05-23T15:19:33;20.70;73.70
6407;DHT22;3236;51.022;6.818;2023-05-23T15:22:04;20.40;77.10
6407;DHT22;3236;51.022;6.818;2023-05-23T15:24:32;20.00;79.80
6407;DHT22;3236;51.022;6.818;2023-05-23T15:26:59;19.80;81.50
6407;DHT22;3236;51.022;6.818;2023-05-23T15:29:26;21.30;82.10
6407;DHT22;3236;51.022;6.818;2023-05-23T15:31:55;22.10;71.70
6407;DHT22;3236;51.022;6.818;2023-05-23T15:34:25;22.20;70.30
6407;DHT22;3236;51.022;6.818;2023-05-23T15:36:52;23.40;68.20
6407;DHT22;3236;51.022;6.818;2023-05-23T15:39:20;24.50;58.00
6407;DHT22;3236;51.022;6.818;2023-05-23T15:41:47;23.60;47.30
6407;DHT22;3236;51.022;6.818;2023-05-23T15:44:14;23.00;50.10
6407;DHT22;3236;51.022;6.818;2023-05-23T15:46:45;22.50;58.80
6407;DHT22;3236;51.022;6.818;2023-05-23T15:49:13;23.30;53.10
6407;DHT22;3236;51.022;6.818;2023-05-23T15:51:44;23.60;53.60
6407;DHT22;3236;51.022;6.818;2023-05-23T15:54:11;24.40;48.20
6407;DHT22;3236;51.022;6.818;2023-05-23T15:56:38;24.80;44.80
6407;DHT22;3236;51.022;6.818;2023-05-23T15:59:05;24.50;45.30
6407;DHT22;3236;51.022;6.818;2023-05-23T16:01:32;24.40;44.90
6407;DHT22;3236;51.022;6.818;2023-05-23T16:04:00;22.00;47.90
6407;DHT22;3236;51.022;6.818;2023-05-23T16:06:28;21.00;51.30
6407;DHT22;3236;51.022;6.818;2023-05-23T16:08:56;20.80;54.50
6407;DHT22;3236;51.022;6.818;2023-05-23T16:11:23;19.90;63.40
6407;DHT22;3236;51.022;6.818;2023-05-23T16:13:50;20.10;63.80
6407;DHT22;3236;51.022;6.818;2023-05-23T16:16:18;21.80;58.40
6407;DHT22;3236;51.022;6.818;2023-05-23T16:18:45;21.90;58.50
6407;DHT22;3236;51.022;6.818;2023-05-23T16:21:12;22.30;57.50
6407;DHT22;3236;51.022;6.818;2023-05-23T16:23:46;22.80;55.10
6407;DHT22;3236;51.022;6.818;2023-05-23T16:26:13;22.50;56.80